CFG9DV EDDF-LEPA
Flight info
| Callsign | CFG9DV |
|---|---|
| Flight time | 1h 49m |
| Altitude | 35000 |
| Route | ANEKI3F/25C ANEKI Y163 HERBI Y164 MOPAN DCT LUTIX DCT BENOT DCT NEMOS DCT INCUS DCT BALSI DCT RETNO DCT TUPOX DCT MTG DCT DIVKO DCT VATIR DCT PIVUS N852 VERSO L129 LUNIK |
| Aircraft | A320/M-SDE3FGHIRWY/LB1 |
Departure
| Time | 2026-05-07 09:02 |
|---|---|
| Airport | Frankfurt Main Airport (EDDF) |
Arrival
| Time | 2026-05-07 10:51 |
|---|---|
| Airport | Palma de Mallorca Airport (LEPA) |
| Time | Latitude | Longitude | Altitude | Speed | Heading |
|---|---|---|---|---|---|
| 2026-05-07 08:34 | 50.04901 | 8.58796 | 362 ft | 0 kts | 160° |
| 2026-05-07 08:50 | 50.04903 | 8.58794 | 366 ft | 2 kts | 160° |
| 2026-05-07 08:51 | 50.04928 | 8.58780 | 364 ft | 4 kts | 160° |
| 2026-05-07 08:51 | 50.04948 | 8.58770 | 365 ft | 4 kts | 181° |
| 2026-05-07 08:51 | 50.04972 | 8.58782 | 364 ft | 4 kts | 227° |
| 2026-05-07 08:51 | 50.04985 | 8.58814 | 367 ft | 4 kts | 250° |
| 2026-05-07 08:52 | 50.04989 | 8.58833 | 364 ft | 0 kts | 250° |
| 2026-05-07 08:54 | 50.04987 | 8.58825 | 363 ft | 5 kts | 250° |
| 2026-05-07 08:54 | 50.04952 | 8.58699 | 361 ft | 16 kts | 232° |
| 2026-05-07 08:55 | 50.04858 | 8.58702 | 366 ft | 12 kts | 159° |
| 2026-05-07 08:55 | 50.04782 | 8.58745 | 366 ft | 15 kts | 160° |
| 2026-05-07 08:55 | 50.04671 | 8.58764 | 370 ft | 14 kts | 186° |
| 2026-05-07 08:55 | 50.04630 | 8.58756 | 370 ft | 0 kts | 191° |
| 2026-05-07 08:56 | 50.04616 | 8.58749 | 370 ft | 9 kts | 196° |
| 2026-05-07 08:56 | 50.04524 | 8.58645 | 371 ft | 22 kts | 217° |
| 2026-05-07 08:56 | 50.04471 | 8.58520 | 370 ft | 0 kts | 250° |
| 2026-05-07 09:01 | 50.04468 | 8.58506 | 373 ft | 8 kts | 250° |
| 2026-05-07 09:01 | 50.04356 | 8.58035 | 366 ft | 82 kts | 249° |
| 2026-05-07 09:02 | 50.04085 | 8.56896 | 362 ft | 140 kts | 250° |
| 2026-05-07 09:02 | 50.03698 | 8.55269 | 509 ft | 170 kts | 251° |
| 2026-05-07 09:02 | 50.03277 | 8.53555 | 1183 ft | 172 kts | 251° |
| 2026-05-07 09:02 | 50.02839 | 8.51775 | 1853 ft | 180 kts | 248° |
| 2026-05-07 09:03 | 50.01964 | 8.50277 | 2128 ft | 207 kts | 211° |
| 2026-05-07 09:03 | 50.00549 | 8.49524 | 2565 ft | 222 kts | 191° |
| 2026-05-07 09:03 | 49.98990 | 8.49576 | 3198 ft | 229 kts | 166° |
| 2026-05-07 09:03 | 49.97551 | 8.50612 | 3936 ft | 230 kts | 141° |
| 2026-05-07 09:04 | 49.96323 | 8.52242 | 4567 ft | 239 kts | 145° |
| 2026-05-07 09:04 | 49.94712 | 8.53125 | 5009 ft | 253 kts | 178° |
| 2026-05-07 09:04 | 49.92883 | 8.53048 | 5458 ft | 272 kts | 184° |
| 2026-05-07 09:04 | 49.90967 | 8.52885 | 6201 ft | 279 kts | 184° |
| 2026-05-07 09:05 | 49.89010 | 8.52709 | 7001 ft | 284 kts | 184° |
| 2026-05-07 09:05 | 49.87031 | 8.52533 | 7863 ft | 286 kts | 185° |
| 2026-05-07 09:05 | 49.85038 | 8.52361 | 8708 ft | 288 kts | 185° |
| 2026-05-07 09:05 | 49.83024 | 8.52193 | 9559 ft | 290 kts | 186° |
| 2026-05-07 09:06 | 49.80998 | 8.52025 | 10332 ft | 294 kts | 186° |
| 2026-05-07 09:06 | 49.78875 | 8.51847 | 10579 ft | 317 kts | 186° |
| 2026-05-07 09:06 | 49.76624 | 8.51652 | 10768 ft | 340 kts | 186° |
| 2026-05-07 09:06 | 49.74216 | 8.51449 | 11200 ft | 352 kts | 185° |
| 2026-05-07 09:07 | 49.71754 | 8.51250 | 11863 ft | 356 kts | 185° |
| 2026-05-07 09:07 | 49.69268 | 8.51051 | 12560 ft | 360 kts | 184° |
| 2026-05-07 09:07 | 49.66748 | 8.50850 | 13237 ft | 365 kts | 184° |
| 2026-05-07 09:07 | 49.64199 | 8.50643 | 13913 ft | 369 kts | 184° |
| 2026-05-07 09:08 | 49.61626 | 8.50435 | 14506 ft | 372 kts | 184° |
| 2026-05-07 09:08 | 49.59023 | 8.50226 | 15105 ft | 376 kts | 184° |
| 2026-05-07 09:08 | 49.56397 | 8.50017 | 15716 ft | 379 kts | 184° |
| 2026-05-07 09:08 | 49.53751 | 8.49806 | 16321 ft | 382 kts | 184° |
| 2026-05-07 09:09 | 49.51083 | 8.49591 | 16931 ft | 386 kts | 184° |
| 2026-05-07 09:09 | 49.48392 | 8.49374 | 17534 ft | 389 kts | 184° |
| 2026-05-07 09:09 | 49.45684 | 8.49156 | 18144 ft | 392 kts | 184° |
| 2026-05-07 09:09 | 49.42950 | 8.48934 | 18685 ft | 395 kts | 184° |
| 2026-05-07 09:10 | 49.40197 | 8.48712 | 19197 ft | 398 kts | 184° |
| 2026-05-07 09:10 | 49.37410 | 8.48488 | 19717 ft | 402 kts | 185° |
| 2026-05-07 09:10 | 49.34610 | 8.48269 | 20236 ft | 405 kts | 185° |
| 2026-05-07 09:10 | 49.31784 | 8.48047 | 20747 ft | 408 kts | 185° |
| 2026-05-07 09:11 | 49.28935 | 8.47771 | 21222 ft | 411 kts | 186° |
| 2026-05-07 09:11 | 49.26073 | 8.47416 | 21685 ft | 414 kts | 187° |
| 2026-05-07 09:11 | 49.23199 | 8.47014 | 22145 ft | 417 kts | 187° |
| 2026-05-07 09:11 | 49.20297 | 8.46598 | 22598 ft | 420 kts | 187° |
| 2026-05-07 09:12 | 49.17371 | 8.46189 | 23030 ft | 423 kts | 187° |
| 2026-05-07 09:12 | 49.14432 | 8.45789 | 23472 ft | 426 kts | 187° |
| 2026-05-07 09:12 | 49.11468 | 8.45393 | 23841 ft | 429 kts | 187° |
| 2026-05-07 09:12 | 49.08482 | 8.45004 | 24189 ft | 431 kts | 187° |
| 2026-05-07 09:13 | 49.05509 | 8.44439 | 24534 ft | 432 kts | 193° |
| 2026-05-07 09:13 | 49.02567 | 8.43443 | 24877 ft | 433 kts | 195° |
| 2026-05-07 09:13 | 48.99624 | 8.42421 | 25215 ft | 436 kts | 195° |
| 2026-05-07 09:13 | 48.96665 | 8.41384 | 25547 ft | 438 kts | 194° |
| 2026-05-07 09:14 | 48.93686 | 8.40339 | 25883 ft | 440 kts | 194° |
| 2026-05-07 09:14 | 48.90700 | 8.39291 | 26217 ft | 442 kts | 194° |
| 2026-05-07 09:14 | 48.87696 | 8.38241 | 26539 ft | 444 kts | 194° |
| 2026-05-07 09:14 | 48.84724 | 8.37211 | 26852 ft | 446 kts | 194° |
| 2026-05-07 09:15 | 48.81689 | 8.36167 | 27170 ft | 448 kts | 194° |
| 2026-05-07 09:15 | 48.78644 | 8.35121 | 27495 ft | 450 kts | 194° |
| 2026-05-07 09:15 | 48.75580 | 8.34046 | 27781 ft | 452 kts | 194° |
| 2026-05-07 09:15 | 48.72520 | 8.32936 | 28057 ft | 454 kts | 194° |
| 2026-05-07 09:16 | 48.69448 | 8.31799 | 28333 ft | 456 kts | 194° |
| 2026-05-07 09:16 | 48.66357 | 8.30648 | 28588 ft | 458 kts | 194° |
| 2026-05-07 09:16 | 48.63257 | 8.29498 | 28841 ft | 460 kts | 194° |
| 2026-05-07 09:16 | 48.60146 | 8.28353 | 29082 ft | 461 kts | 194° |
| 2026-05-07 09:17 | 48.57016 | 8.27217 | 29324 ft | 463 kts | 194° |
| 2026-05-07 09:17 | 48.53878 | 8.26086 | 29552 ft | 465 kts | 194° |
| 2026-05-07 09:17 | 48.50732 | 8.24956 | 29882 ft | 464 kts | 194° |
| 2026-05-07 09:17 | 48.47595 | 8.23830 | 30216 ft | 463 kts | 194° |
| 2026-05-07 09:18 | 48.44470 | 8.22695 | 30503 ft | 461 kts | 194° |
| 2026-05-07 09:18 | 48.41356 | 8.21555 | 30800 ft | 460 kts | 194° |
| 2026-05-07 09:18 | 48.38249 | 8.20414 | 31105 ft | 459 kts | 194° |
| 2026-05-07 09:18 | 48.35151 | 8.19281 | 31406 ft | 457 kts | 194° |
| 2026-05-07 09:19 | 48.32070 | 8.18157 | 31703 ft | 456 kts | 194° |
| 2026-05-07 09:19 | 48.28988 | 8.17034 | 32027 ft | 454 kts | 194° |
| 2026-05-07 09:19 | 48.25934 | 8.15889 | 32331 ft | 452 kts | 198° |
| 2026-05-07 09:19 | 48.22999 | 8.14241 | 32618 ft | 449 kts | 206° |
| 2026-05-07 09:20 | 48.20202 | 8.12169 | 32923 ft | 448 kts | 207° |
| 2026-05-07 09:20 | 48.17409 | 8.10091 | 33242 ft | 446 kts | 207° |
| 2026-05-07 09:20 | 48.14632 | 8.08034 | 33549 ft | 445 kts | 207° |
| 2026-05-07 09:20 | 48.11894 | 8.06014 | 33862 ft | 444 kts | 207° |
| 2026-05-07 09:21 | 48.09097 | 8.03956 | 34163 ft | 442 kts | 207° |
| 2026-05-07 09:21 | 48.06374 | 8.01953 | 34398 ft | 441 kts | 207° |
| 2026-05-07 09:21 | 48.03617 | 7.99926 | 34627 ft | 441 kts | 207° |
| 2026-05-07 09:21 | 48.00867 | 7.97906 | 34840 ft | 441 kts | 208° |
| 2026-05-07 09:22 | 47.98118 | 7.95886 | 35004 ft | 441 kts | 208° |
| 2026-05-07 09:22 | 47.95361 | 7.93863 | 35050 ft | 441 kts | 207° |
| 2026-05-07 09:22 | 47.89852 | 7.89842 | 35058 ft | 441 kts | 207° |
| 2026-05-07 09:23 | 47.84347 | 7.85837 | 35058 ft | 440 kts | 208° |
| 2026-05-07 09:23 | 47.78848 | 7.81822 | 35057 ft | 440 kts | 208° |
| 2026-05-07 09:24 | 47.73349 | 7.77816 | 35058 ft | 440 kts | 208° |
| 2026-05-07 09:24 | 47.67839 | 7.73824 | 35058 ft | 440 kts | 208° |
| 2026-05-07 09:25 | 47.62334 | 7.69843 | 35057 ft | 440 kts | 208° |
| 2026-05-07 09:25 | 47.56830 | 7.65874 | 35055 ft | 440 kts | 208° |
| 2026-05-07 09:26 | 47.51315 | 7.61906 | 35057 ft | 440 kts | 208° |
| 2026-05-07 09:26 | 47.45805 | 7.57945 | 35054 ft | 440 kts | 208° |
| 2026-05-07 09:27 | 47.40324 | 7.54017 | 35053 ft | 440 kts | 207° |
| 2026-05-07 09:28 | 47.32020 | 7.48084 | 35053 ft | 440 kts | 208° |
| 2026-05-07 09:28 | 47.26506 | 7.44156 | 35055 ft | 440 kts | 208° |
| 2026-05-07 09:29 | 47.20988 | 7.40236 | 35055 ft | 440 kts | 208° |
| 2026-05-07 09:29 | 47.15934 | 7.35433 | 35057 ft | 435 kts | 224° |
| 2026-05-07 09:30 | 47.11992 | 7.28754 | 35056 ft | 433 kts | 233° |
| 2026-05-07 09:30 | 47.08255 | 7.21837 | 35056 ft | 433 kts | 233° |
| 2026-05-07 09:31 | 47.04493 | 7.14939 | 35054 ft | 433 kts | 233° |
| 2026-05-07 09:31 | 47.00730 | 7.08061 | 35050 ft | 432 kts | 233° |
| 2026-05-07 09:32 | 46.96967 | 7.01180 | 35054 ft | 432 kts | 233° |
| 2026-05-07 09:32 | 46.93203 | 6.94323 | 35052 ft | 432 kts | 231° |
| 2026-05-07 09:33 | 46.88659 | 6.88565 | 35059 ft | 437 kts | 213° |
| 2026-05-07 09:33 | 46.83373 | 6.84170 | 35055 ft | 437 kts | 212° |
| 2026-05-07 09:34 | 46.78087 | 6.79761 | 35056 ft | 437 kts | 212° |
| 2026-05-07 09:34 | 46.72845 | 6.75399 | 35050 ft | 437 kts | 212° |
| 2026-05-07 09:35 | 46.67558 | 6.71023 | 35044 ft | 437 kts | 212° |
| 2026-05-07 09:35 | 46.62278 | 6.66670 | 35038 ft | 436 kts | 212° |
| 2026-05-07 09:36 | 46.56997 | 6.62326 | 35030 ft | 436 kts | 212° |
| 2026-05-07 09:36 | 46.51716 | 6.57989 | 35029 ft | 436 kts | 212° |
| 2026-05-07 09:37 | 46.46445 | 6.53661 | 35032 ft | 435 kts | 212° |
| 2026-05-07 09:37 | 46.41176 | 6.49345 | 35025 ft | 435 kts | 212° |
| 2026-05-07 09:38 | 46.35903 | 6.45041 | 35026 ft | 434 kts | 212° |
| 2026-05-07 09:38 | 46.30636 | 6.40762 | 35025 ft | 434 kts | 212° |
| 2026-05-07 09:39 | 46.25371 | 6.36488 | 35028 ft | 434 kts | 212° |
| 2026-05-07 09:39 | 46.20109 | 6.32216 | 35028 ft | 434 kts | 212° |
| 2026-05-07 09:40 | 46.15734 | 6.28677 | 35026 ft | 433 kts | 212° |
| 2026-05-07 09:40 | 46.10471 | 6.24431 | 35026 ft | 433 kts | 212° |
| 2026-05-07 09:41 | 46.05215 | 6.20201 | 35029 ft | 433 kts | 213° |
| 2026-05-07 09:41 | 45.99955 | 6.15977 | 35028 ft | 433 kts | 213° |
| 2026-05-07 09:42 | 45.94702 | 6.11752 | 35026 ft | 432 kts | 213° |
| 2026-05-07 09:42 | 45.89451 | 6.07546 | 35027 ft | 432 kts | 213° |
| 2026-05-07 09:43 | 45.83908 | 6.04145 | 35028 ft | 439 kts | 198° |
| 2026-05-07 09:43 | 45.77842 | 6.02699 | 35025 ft | 443 kts | 193° |
| 2026-05-07 09:44 | 45.71753 | 6.01360 | 35026 ft | 443 kts | 193° |
| 2026-05-07 09:44 | 45.65655 | 6.00012 | 35030 ft | 443 kts | 193° |
| 2026-05-07 09:45 | 45.59614 | 5.98676 | 35028 ft | 442 kts | 193° |
| 2026-05-07 09:45 | 45.53529 | 5.97351 | 35029 ft | 442 kts | 193° |
| 2026-05-07 09:46 | 45.47449 | 5.96025 | 35026 ft | 441 kts | 194° |
| 2026-05-07 09:46 | 45.41438 | 5.94325 | 35030 ft | 439 kts | 198° |
| 2026-05-07 09:47 | 45.35502 | 5.92335 | 35013 ft | 438 kts | 198° |
| 2026-05-07 09:47 | 45.29574 | 5.90381 | 35023 ft | 437 kts | 198° |
| 2026-05-07 09:48 | 45.23634 | 5.88516 | 35026 ft | 437 kts | 197° |
| 2026-05-07 09:48 | 45.17684 | 5.86702 | 35008 ft | 437 kts | 197° |
| 2026-05-07 09:49 | 45.11746 | 5.84883 | 35009 ft | 436 kts | 197° |
| 2026-05-07 09:49 | 45.05817 | 5.83046 | 35004 ft | 436 kts | 198° |
| 2026-05-07 09:50 | 44.99890 | 5.81213 | 35003 ft | 435 kts | 198° |
| 2026-05-07 09:50 | 44.93972 | 5.79387 | 34997 ft | 435 kts | 198° |
| 2026-05-07 09:51 | 44.88063 | 5.77573 | 34996 ft | 434 kts | 198° |
| 2026-05-07 09:51 | 44.82160 | 5.75762 | 34994 ft | 434 kts | 198° |
| 2026-05-07 09:52 | 44.76264 | 5.73959 | 34994 ft | 433 kts | 198° |
| 2026-05-07 09:52 | 44.70418 | 5.72169 | 34985 ft | 433 kts | 197° |
| 2026-05-07 09:53 | 44.64535 | 5.70383 | 34987 ft | 432 kts | 198° |
| 2026-05-07 09:53 | 44.58654 | 5.68609 | 34990 ft | 432 kts | 198° |
| 2026-05-07 09:54 | 44.52788 | 5.66828 | 34986 ft | 431 kts | 198° |
| 2026-05-07 09:54 | 44.46926 | 5.65046 | 34990 ft | 431 kts | 198° |
| 2026-05-07 09:55 | 44.41063 | 5.63275 | 34986 ft | 430 kts | 198° |
| 2026-05-07 09:55 | 44.35379 | 5.60916 | 34986 ft | 423 kts | 207° |
| 2026-05-07 09:56 | 44.29913 | 5.57907 | 34986 ft | 423 kts | 207° |
| 2026-05-07 09:56 | 44.24439 | 5.54918 | 34987 ft | 422 kts | 207° |
| 2026-05-07 09:57 | 44.18982 | 5.51938 | 34986 ft | 421 kts | 207° |
| 2026-05-07 09:57 | 44.13529 | 5.48966 | 34990 ft | 420 kts | 207° |
| 2026-05-07 09:58 | 44.08092 | 5.46009 | 34990 ft | 419 kts | 207° |
| 2026-05-07 09:58 | 44.02659 | 5.43050 | 34990 ft | 419 kts | 207° |
| 2026-05-07 09:59 | 43.97228 | 5.40108 | 34989 ft | 418 kts | 207° |
| 2026-05-07 09:59 | 43.91803 | 5.37177 | 34991 ft | 418 kts | 207° |
| 2026-05-07 10:00 | 43.86419 | 5.34269 | 34994 ft | 418 kts | 207° |
| 2026-05-07 10:00 | 43.81008 | 5.31351 | 34996 ft | 417 kts | 206° |
| 2026-05-07 10:01 | 43.75603 | 5.28442 | 34998 ft | 417 kts | 206° |
| 2026-05-07 10:01 | 43.70197 | 5.25531 | 35000 ft | 417 kts | 206° |
| 2026-05-07 10:02 | 43.64800 | 5.22636 | 34999 ft | 416 kts | 206° |
| 2026-05-07 10:02 | 43.59409 | 5.19753 | 34999 ft | 416 kts | 206° |
| 2026-05-07 10:03 | 43.54012 | 5.16864 | 35000 ft | 416 kts | 206° |
| 2026-05-07 10:03 | 43.48613 | 5.13992 | 35003 ft | 415 kts | 206° |
| 2026-05-07 10:04 | 43.43224 | 5.11132 | 35001 ft | 415 kts | 206° |
| 2026-05-07 10:04 | 43.37954 | 5.07985 | 34998 ft | 409 kts | 216° |
| 2026-05-07 10:05 | 43.33270 | 5.03611 | 35004 ft | 407 kts | 218° |
| 2026-05-07 10:05 | 43.28601 | 4.99217 | 35006 ft | 407 kts | 218° |
| 2026-05-07 10:06 | 43.23927 | 4.94838 | 35009 ft | 406 kts | 218° |
| 2026-05-07 10:06 | 43.19263 | 4.90464 | 35014 ft | 406 kts | 218° |
| 2026-05-07 10:07 | 43.14607 | 4.86094 | 35018 ft | 405 kts | 218° |
| 2026-05-07 10:07 | 43.09979 | 4.81759 | 35020 ft | 405 kts | 218° |
| 2026-05-07 10:08 | 43.05270 | 4.77428 | 35019 ft | 406 kts | 213° |
| 2026-05-07 10:08 | 43.00327 | 4.73668 | 35025 ft | 407 kts | 213° |
| 2026-05-07 10:09 | 42.95407 | 4.69941 | 35027 ft | 407 kts | 212° |
| 2026-05-07 10:09 | 42.90455 | 4.66202 | 35026 ft | 406 kts | 212° |
| 2026-05-07 10:10 | 42.85513 | 4.62468 | 35028 ft | 406 kts | 212° |
| 2026-05-07 10:10 | 42.80610 | 4.58770 | 35027 ft | 406 kts | 212° |
| 2026-05-07 10:11 | 42.75665 | 4.55038 | 35025 ft | 406 kts | 212° |
| 2026-05-07 10:11 | 42.70727 | 4.51330 | 35030 ft | 406 kts | 212° |
| 2026-05-07 10:12 | 42.65784 | 4.47624 | 35027 ft | 405 kts | 212° |
| 2026-05-07 10:12 | 42.60848 | 4.43921 | 35029 ft | 405 kts | 212° |
| 2026-05-07 10:13 | 42.55912 | 4.40229 | 35039 ft | 405 kts | 212° |
| 2026-05-07 10:13 | 42.50976 | 4.36555 | 35035 ft | 404 kts | 212° |
| 2026-05-07 10:14 | 42.46076 | 4.32921 | 35034 ft | 404 kts | 212° |
| 2026-05-07 10:14 | 42.41149 | 4.29255 | 35039 ft | 404 kts | 212° |
| 2026-05-07 10:15 | 42.36228 | 4.25589 | 35032 ft | 404 kts | 212° |
| 2026-05-07 10:15 | 42.31306 | 4.21941 | 35035 ft | 403 kts | 212° |
| 2026-05-07 10:16 | 42.26378 | 4.18305 | 35035 ft | 403 kts | 212° |
| 2026-05-07 10:16 | 42.21454 | 4.14678 | 35039 ft | 403 kts | 211° |
| 2026-05-07 10:17 | 42.16533 | 4.11052 | 35031 ft | 403 kts | 212° |
| 2026-05-07 10:17 | 42.11611 | 4.07431 | 35031 ft | 403 kts | 211° |
| 2026-05-07 10:18 | 42.06690 | 4.03820 | 35030 ft | 403 kts | 211° |
| 2026-05-07 10:18 | 42.01768 | 4.00212 | 35040 ft | 402 kts | 211° |
| 2026-05-07 10:19 | 41.96844 | 3.96612 | 35027 ft | 402 kts | 211° |
| 2026-05-07 10:19 | 41.91775 | 3.93400 | 35034 ft | 407 kts | 200° |
| 2026-05-07 10:20 | 41.86171 | 3.91928 | 35033 ft | 411 kts | 194° |
| 2026-05-07 10:20 | 41.80571 | 3.90639 | 35031 ft | 411 kts | 194° |
| 2026-05-07 10:21 | 41.74941 | 3.89339 | 35034 ft | 411 kts | 194° |
| 2026-05-07 10:21 | 41.69311 | 3.88042 | 35035 ft | 410 kts | 194° |
| 2026-05-07 10:22 | 41.63676 | 3.86749 | 35036 ft | 410 kts | 195° |
| 2026-05-07 10:22 | 41.58051 | 3.85457 | 35037 ft | 410 kts | 195° |
| 2026-05-07 10:23 | 41.52432 | 3.84170 | 35033 ft | 410 kts | 195° |
| 2026-05-07 10:23 | 41.46817 | 3.82888 | 35033 ft | 409 kts | 195° |
| 2026-05-07 10:24 | 41.41213 | 3.81599 | 35033 ft | 409 kts | 195° |
| 2026-05-07 10:24 | 41.35614 | 3.80307 | 35029 ft | 408 kts | 195° |
| 2026-05-07 10:25 | 41.30016 | 3.79033 | 35026 ft | 408 kts | 195° |
| 2026-05-07 10:25 | 41.25361 | 3.77979 | 35028 ft | 408 kts | 195° |
| 2026-05-07 10:26 | 41.19764 | 3.76701 | 35028 ft | 408 kts | 195° |
| 2026-05-07 10:26 | 41.14246 | 3.75146 | 35025 ft | 402 kts | 204° |
| 2026-05-07 10:27 | 41.09042 | 3.72471 | 35029 ft | 400 kts | 206° |
| 2026-05-07 10:27 | 41.03851 | 3.69789 | 35023 ft | 400 kts | 205° |
| 2026-05-07 10:28 | 40.98661 | 3.67119 | 35029 ft | 400 kts | 206° |
| 2026-05-07 10:28 | 40.93468 | 3.64446 | 35025 ft | 400 kts | 206° |
| 2026-05-07 10:29 | 40.88278 | 3.61784 | 35022 ft | 400 kts | 206° |
| 2026-05-07 10:29 | 40.83085 | 3.59126 | 35024 ft | 400 kts | 205° |
| 2026-05-07 10:30 | 40.75298 | 3.55142 | 35023 ft | 400 kts | 205° |
| 2026-05-07 10:30 | 40.70094 | 3.52519 | 35022 ft | 401 kts | 205° |
| 2026-05-07 10:31 | 40.67476 | 3.51226 | 34617 ft | 402 kts | 205° |
| 2026-05-07 10:31 | 40.64864 | 3.49902 | 34133 ft | 401 kts | 206° |
| 2026-05-07 10:31 | 40.62266 | 3.48567 | 33603 ft | 401 kts | 206° |
| 2026-05-07 10:31 | 40.59665 | 3.47228 | 33057 ft | 402 kts | 206° |
| 2026-05-07 10:32 | 40.57057 | 3.45886 | 32529 ft | 403 kts | 206° |
| 2026-05-07 10:32 | 40.54472 | 3.44558 | 32010 ft | 405 kts | 205° |
| 2026-05-07 10:32 | 40.51812 | 3.43199 | 31492 ft | 406 kts | 205° |
| 2026-05-07 10:32 | 40.49169 | 3.41860 | 30977 ft | 408 kts | 205° |
| 2026-05-07 10:33 | 40.46510 | 3.40534 | 30496 ft | 410 kts | 202° |
| 2026-05-07 10:33 | 40.43719 | 3.39636 | 29993 ft | 417 kts | 193° |
| 2026-05-07 10:33 | 40.40801 | 3.39416 | 29422 ft | 424 kts | 184° |
| 2026-05-07 10:33 | 40.37848 | 3.39595 | 28861 ft | 423 kts | 183° |
| 2026-05-07 10:34 | 40.34919 | 3.39774 | 28314 ft | 420 kts | 183° |
| 2026-05-07 10:34 | 40.32007 | 3.39948 | 27773 ft | 417 kts | 183° |
| 2026-05-07 10:34 | 40.29114 | 3.40113 | 27246 ft | 415 kts | 183° |
| 2026-05-07 10:34 | 40.26246 | 3.40269 | 26738 ft | 412 kts | 183° |
| 2026-05-07 10:35 | 40.23388 | 3.40424 | 26224 ft | 409 kts | 183° |
| 2026-05-07 10:35 | 40.20555 | 3.40579 | 25726 ft | 407 kts | 183° |
| 2026-05-07 10:35 | 40.17730 | 3.40736 | 25237 ft | 405 kts | 183° |
| 2026-05-07 10:35 | 40.14923 | 3.40893 | 24757 ft | 403 kts | 183° |
| 2026-05-07 10:36 | 40.12137 | 3.41050 | 24285 ft | 400 kts | 183° |
| 2026-05-07 10:36 | 40.09363 | 3.41209 | 23820 ft | 398 kts | 183° |
| 2026-05-07 10:36 | 40.06600 | 3.41367 | 23318 ft | 396 kts | 183° |
| 2026-05-07 10:36 | 40.03856 | 3.41432 | 22771 ft | 390 kts | 190° |
| 2026-05-07 10:37 | 40.01292 | 3.40583 | 22227 ft | 377 kts | 208° |
| 2026-05-07 10:37 | 39.99164 | 3.38680 | 21704 ft | 369 kts | 227° |
| 2026-05-07 10:37 | 39.97709 | 3.35965 | 21188 ft | 367 kts | 244° |
| 2026-05-07 10:37 | 39.96716 | 3.32902 | 20692 ft | 367 kts | 247° |
| 2026-05-07 10:38 | 39.95763 | 3.29821 | 20188 ft | 366 kts | 247° |
| 2026-05-07 10:38 | 39.94813 | 3.26753 | 19697 ft | 365 kts | 247° |
| 2026-05-07 10:38 | 39.93865 | 3.23695 | 19221 ft | 363 kts | 247° |
| 2026-05-07 10:38 | 39.92919 | 3.20655 | 18748 ft | 362 kts | 247° |
| 2026-05-07 10:39 | 39.91982 | 3.17656 | 18287 ft | 361 kts | 247° |
| 2026-05-07 10:39 | 39.91036 | 3.14636 | 17749 ft | 359 kts | 247° |
| 2026-05-07 10:39 | 39.90092 | 3.11632 | 17222 ft | 357 kts | 247° |
| 2026-05-07 10:39 | 39.89153 | 3.08642 | 16696 ft | 355 kts | 247° |
| 2026-05-07 10:40 | 39.88837 | 3.07635 | 16525 ft | 354 kts | 247° |
| 2026-05-07 10:40 | 39.88545 | 3.06698 | 16365 ft | 353 kts | 248° |
| 2026-05-07 10:40 | 39.87639 | 3.03741 | 15859 ft | 351 kts | 247° |
| 2026-05-07 10:40 | 39.86715 | 3.00806 | 15358 ft | 349 kts | 247° |
| 2026-05-07 10:41 | 39.85795 | 2.97890 | 14859 ft | 348 kts | 247° |
| 2026-05-07 10:41 | 39.84804 | 2.95032 | 14387 ft | 346 kts | 243° |
| 2026-05-07 10:41 | 39.83701 | 2.92262 | 13917 ft | 344 kts | 242° |
| 2026-05-07 10:41 | 39.82593 | 2.89502 | 13476 ft | 343 kts | 242° |
| 2026-05-07 10:42 | 39.81493 | 2.86760 | 13017 ft | 341 kts | 242° |
| 2026-05-07 10:42 | 39.80397 | 2.84029 | 12575 ft | 340 kts | 242° |
| 2026-05-07 10:42 | 39.79301 | 2.81311 | 12137 ft | 338 kts | 242° |
| 2026-05-07 10:42 | 39.78206 | 2.78607 | 11703 ft | 337 kts | 242° |
| 2026-05-07 10:43 | 39.77117 | 2.75921 | 11279 ft | 336 kts | 242° |
| 2026-05-07 10:43 | 39.76027 | 2.73244 | 10854 ft | 335 kts | 242° |
| 2026-05-07 10:43 | 39.74945 | 2.70568 | 10438 ft | 333 kts | 242° |
| 2026-05-07 10:43 | 39.73877 | 2.67932 | 10022 ft | 328 kts | 241° |
| 2026-05-07 10:44 | 39.72698 | 2.65421 | 9586 ft | 321 kts | 237° |
| 2026-05-07 10:44 | 39.71516 | 2.63053 | 9135 ft | 305 kts | 237° |
| 2026-05-07 10:44 | 39.70388 | 2.60804 | 8690 ft | 290 kts | 237° |
| 2026-05-07 10:44 | 39.69310 | 2.58658 | 8260 ft | 278 kts | 237° |
| 2026-05-07 10:45 | 39.68256 | 2.56562 | 7830 ft | 277 kts | 237° |
| 2026-05-07 10:45 | 39.67206 | 2.54468 | 7403 ft | 278 kts | 237° |
| 2026-05-07 10:45 | 39.66152 | 2.52361 | 6970 ft | 278 kts | 237° |
| 2026-05-07 10:45 | 39.64898 | 2.50496 | 6516 ft | 272 kts | 217° |
| 2026-05-07 10:46 | 39.63245 | 2.49418 | 6062 ft | 262 kts | 194° |
| 2026-05-07 10:46 | 39.61467 | 2.49256 | 5603 ft | 253 kts | 171° |
| 2026-05-07 10:46 | 39.59783 | 2.49806 | 5149 ft | 248 kts | 163° |
| 2026-05-07 10:46 | 39.58134 | 2.50414 | 4703 ft | 245 kts | 163° |
| 2026-05-07 10:47 | 39.56525 | 2.51005 | 4297 ft | 235 kts | 163° |
| 2026-05-07 10:47 | 39.54972 | 2.51574 | 3926 ft | 228 kts | 163° |
| 2026-05-07 10:47 | 39.53450 | 2.52132 | 3547 ft | 228 kts | 162° |
| 2026-05-07 10:47 | 39.51920 | 2.52694 | 3178 ft | 228 kts | 162° |
| 2026-05-07 10:48 | 39.50389 | 2.53256 | 2804 ft | 230 kts | 163° |
| 2026-05-07 10:48 | 39.48973 | 2.54064 | 2695 ft | 215 kts | 136° |
| 2026-05-07 10:48 | 39.48189 | 2.55658 | 2574 ft | 211 kts | 101° |
| 2026-05-07 10:48 | 39.48302 | 2.57516 | 2395 ft | 211 kts | 65° |
| 2026-05-07 10:49 | 39.49027 | 2.59144 | 2147 ft | 211 kts | 57° |
| 2026-05-07 10:49 | 39.49816 | 2.60760 | 1878 ft | 209 kts | 58° |
| 2026-05-07 10:49 | 39.50571 | 2.62336 | 1604 ft | 208 kts | 58° |
| 2026-05-07 10:49 | 39.51316 | 2.63901 | 1320 ft | 197 kts | 58° |
| 2026-05-07 10:50 | 39.51994 | 2.65330 | 1098 ft | 176 kts | 59° |
| 2026-05-07 10:50 | 39.52602 | 2.66612 | 873 ft | 159 kts | 58° |
| 2026-05-07 10:50 | 39.53150 | 2.67774 | 648 ft | 144 kts | 59° |
| 2026-05-07 10:50 | 39.53671 | 2.68842 | 459 ft | 137 kts | 58° |
| 2026-05-07 10:51 | 39.54173 | 2.69881 | 287 ft | 135 kts | 59° |
| 2026-05-07 10:51 | 39.54656 | 2.70921 | 102 ft | 134 kts | 60° |
| 2026-05-07 10:51 | 39.55110 | 2.71899 | 39 ft | 113 kts | 59° |
| 2026-05-07 10:51 | 39.55383 | 2.72481 | 38 ft | 44 kts | 59° |
| 2026-05-07 10:52 | 39.55490 | 2.72770 | 38 ft | 33 kts | 81° |
| 2026-05-07 10:52 | 39.55500 | 2.73025 | 38 ft | 26 kts | 88° |
| 2026-05-07 10:52 | 39.55536 | 2.73251 | 37 ft | 26 kts | 58° |
| 2026-05-07 10:52 | 39.55625 | 2.73446 | 37 ft | 20 kts | 73° |
| 2026-05-07 10:53 | 39.55541 | 2.73563 | 38 ft | 19 kts | 144° |
| 2026-05-07 10:53 | 39.55421 | 2.73657 | 38 ft | 21 kts | 148° |
| 2026-05-07 10:53 | 39.55290 | 2.73761 | 38 ft | 23 kts | 148° |
| 2026-05-07 10:53 | 39.55179 | 2.73818 | 38 ft | 8 kts | 212° |
| 2026-05-07 10:54 | 39.55138 | 2.73778 | 38 ft | 14 kts | 179° |
| 2026-05-07 10:54 | 39.55048 | 2.73821 | 38 ft | 12 kts | 211° |
| 2026-05-07 10:54 | 39.55008 | 2.73739 | 38 ft | 6 kts | 240° |
| 2026-05-07 10:54 | 39.55002 | 2.73725 | 36 ft | 0 kts | 239° |